createdAt,value
2019-04-14T00:03:50.122Z,4.70
2019-04-14T00:07:51.756Z,3.40
2019-04-14T00:11:52.838Z,4.60
2019-04-14T00:15:55.022Z,4.50
2019-04-14T00:19:56.659Z,4.80
2019-04-14T00:23:58.746Z,4.10
2019-04-14T00:28:00.770Z,4.90
2019-04-14T00:32:02.981Z,5.90
2019-04-14T00:36:23.802Z,5.30
2019-04-14T00:40:33.090Z,4.70
2019-04-14T00:44:41.010Z,4.20
2019-04-14T00:48:43.063Z,4.50
2019-04-14T00:52:43.983Z,5.10
2019-04-14T00:56:45.472Z,4.80
2019-04-14T01:00:47.354Z,5.10
2019-04-14T01:04:49.146Z,5.30
2019-04-14T01:08:51.135Z,5.10
2019-04-14T01:12:52.283Z,4.70
2019-04-14T01:16:53.825Z,3.00
2019-04-14T01:20:55.740Z,2.60
2019-04-14T01:24:57.566Z,2.90
2019-04-14T01:28:59.355Z,2.60
2019-04-14T01:33:01.102Z,2.00
2019-04-14T01:37:02.959Z,1.50
2019-04-14T01:41:04.312Z,1.80
2019-04-14T01:45:05.754Z,1.60
2019-04-14T01:49:07.210Z,2.00
2019-04-14T01:53:27.193Z,1.20
2019-04-14T01:57:44.333Z,1.60
2019-04-14T02:01:47.817Z,1.40
2019-04-14T02:05:49.631Z,1.60
2019-04-14T02:09:51.110Z,1.70
2019-04-14T02:13:52.885Z,1.40
2019-04-14T02:17:54.651Z,1.40
2019-04-14T02:21:56.344Z,1.10
2019-04-14T02:25:57.997Z,1.40
2019-04-14T02:30:00.359Z,1.20
2019-04-14T02:34:34.229Z,2.20
2019-04-14T02:42:46.726Z,1.60
2019-04-14T02:46:45.897Z,1.30
2019-04-14T02:50:43.643Z,0.90
2019-04-14T02:59:35.520Z,1.50
2019-04-14T03:02:45.032Z,0.60
2019-04-14T03:06:50.091Z,0.90
2019-04-14T03:10:55.833Z,0.70
2019-04-14T03:15:01.045Z,0.90
2019-04-14T03:19:06.233Z,1.00
2019-04-14T03:23:18.970Z,1.10
2019-04-14T03:27:24.943Z,0.90
2019-04-14T03:39:44.354Z,1.10
2019-04-14T03:47:31.071Z,1.20
2019-04-14T03:51:45.070Z,1.40
2019-04-14T03:55:54.398Z,1.00
2019-04-14T03:59:50.501Z,1.10
2019-04-14T04:03:52.167Z,1.10
2019-04-14T04:07:53.849Z,0.70
2019-04-14T04:11:54.891Z,1.80
2019-04-14T04:15:58.419Z,1.20
2019-04-14T04:20:02.470Z,1.10
2019-04-14T04:24:06.429Z,0.70
2019-04-14T04:28:23.196Z,1.20
2019-04-14T04:32:36.225Z,1.40
2019-04-14T04:36:51.515Z,1.00
2019-04-14T04:40:52.860Z,1.10
2019-04-14T04:44:55.243Z,1.00
2019-04-14T04:49:04.476Z,1.30
2019-04-14T04:53:00.371Z,2.10
2019-04-14T04:57:02.488Z,2.10
2019-04-14T05:01:03.587Z,1.60
2019-04-14T05:05:42.581Z,1.50
2019-04-14T05:09:46.859Z,1.30
2019-04-14T05:13:51.108Z,1.30
2019-04-14T05:17:52.227Z,1.20
2019-04-14T05:21:53.802Z,1.30
2019-04-14T05:25:55.958Z,1.40
2019-04-14T05:29:58.034Z,1.90
2019-04-14T05:33:59.959Z,2.30
2019-04-14T05:38:01.845Z,2.80
2019-04-14T05:42:08.577Z,2.20
2019-04-14T05:46:05.758Z,2.80
2019-04-14T05:50:07.360Z,2.20
2019-04-14T05:54:08.334Z,2.30
2019-04-14T05:58:09.993Z,2.40
2019-04-14T06:02:11.573Z,1.90
2019-04-14T06:06:12.621Z,3.10
2019-04-14T06:10:13.658Z,3.50
2019-04-14T06:14:14.640Z,3.70
2019-04-14T06:18:15.893Z,5.50
2019-04-14T06:22:16.756Z,5.70
2019-04-14T06:26:17.756Z,3.70
2019-04-14T06:30:38.584Z,3.80
2019-04-14T06:34:58.138Z,3.80
2019-04-14T06:39:07.002Z,3.80
2019-04-14T06:43:08.023Z,4.30
2019-04-14T06:47:09.016Z,2.80
2019-04-14T06:51:09.896Z,2.70
2019-04-14T06:55:10.875Z,3.40
2019-04-14T06:59:11.757Z,3.80
2019-04-14T07:03:12.682Z,3.60
2019-04-14T07:07:13.666Z,4.30
2019-04-14T07:11:14.518Z,3.50
2019-04-14T07:15:15.528Z,3.20
2019-04-14T07:19:18.259Z,2.60
2019-04-14T07:23:19.138Z,2.80
2019-04-14T07:27:20.145Z,3.60
2019-04-14T07:31:29.218Z,3.20
2019-04-14T07:35:44.068Z,3.30
2019-04-14T07:39:46.966Z,3.10
2019-04-14T07:44:01.935Z,4.30
2019-04-14T07:48:13.947Z,4.50
2019-04-14T07:52:22.763Z,3.70
2019-04-14T07:56:25.655Z,3.70
2019-04-14T08:00:31.436Z,4.20
2019-04-14T08:04:34.396Z,4.80
2019-04-14T08:08:35.457Z,4.70
2019-04-14T08:12:36.350Z,4.30
2019-04-14T08:16:37.575Z,4.40
2019-04-14T08:20:38.615Z,4.20
2019-04-14T08:24:39.816Z,4.80
2019-04-14T08:28:40.700Z,5.00
2019-04-14T08:32:41.600Z,5.00
2019-04-14T08:36:45.150Z,5.10
2019-04-14T08:40:46.130Z,5.30
2019-04-14T08:44:50.334Z,4.90
2019-04-14T08:48:59.275Z,5.00
2019-04-14T08:53:18.891Z,4.70
2019-04-14T08:57:40.309Z,5.40
2019-04-14T09:01:58.381Z,6.00
2019-04-14T09:06:01.573Z,6.40
2019-04-14T09:10:12.821Z,6.50
2019-04-14T09:14:13.800Z,6.20
2019-04-14T09:18:14.773Z,6.00
2019-04-14T09:22:15.921Z,6.50
2019-04-14T09:26:16.790Z,6.60
2019-04-14T09:30:18.026Z,6.90
2019-04-14T09:34:18.911Z,7.50
2019-04-14T09:38:19.793Z,7.30
2019-04-14T09:42:20.776Z,7.40
2019-04-14T09:46:21.641Z,7.30
2019-04-14T09:50:23.911Z,7.70
2019-04-14T09:54:24.823Z,7.90
2019-04-14T09:58:25.811Z,7.60
2019-04-14T10:02:26.684Z,7.60
2019-04-14T10:06:27.549Z,7.80
2019-04-14T10:10:28.541Z,7.30
2019-04-14T10:14:30.781Z,7.70
2019-04-14T10:18:32.831Z,7.40
2019-04-14T10:22:36.551Z,7.70
2019-04-14T10:26:37.702Z,7.90
2019-04-14T10:30:38.711Z,8.00
2019-04-14T10:34:41.188Z,8.30
2019-04-14T10:38:42.059Z,7.80
2019-04-14T10:42:43.843Z,7.50
2019-04-14T10:46:44.840Z,8.30
2019-04-14T10:50:46.072Z,8.70
2019-04-14T10:54:47.216Z,9.50
2019-04-14T10:58:48.175Z,9.70
2019-04-14T11:02:49.183Z,10.40
2019-04-14T11:06:52.076Z,11.20
2019-04-14T11:10:54.254Z,11.00
2019-04-14T11:14:55.244Z,8.80
2019-04-14T11:18:56.128Z,9.10
2019-04-14T11:23:03.298Z,8.60
2019-04-14T11:26:59.954Z,9.70
2019-04-14T11:31:01.414Z,8.90
2019-04-14T11:35:17.347Z,9.00
2019-04-14T11:39:20.295Z,9.00
2019-04-14T11:43:21.318Z,8.50
2019-04-14T11:47:22.293Z,9.40
2019-04-14T11:51:23.539Z,8.80
2019-04-14T11:55:24.433Z,9.20
2019-04-14T11:59:33.295Z,9.80
2019-04-14T12:03:36.238Z,10.60
2019-04-14T12:07:41.973Z,9.20
2019-04-14T12:11:42.933Z,8.80
2019-04-14T12:15:43.999Z,9.10
2019-04-14T12:19:44.938Z,9.80
2019-04-14T12:23:45.827Z,9.10
2019-04-14T12:27:46.700Z,9.60
2019-04-14T12:31:48.643Z,10.20
2019-04-14T12:35:49.711Z,9.90
2019-04-14T12:39:50.835Z,8.90
2019-04-14T12:44:10.606Z,9.80
2019-04-14T12:48:14.494Z,9.10
2019-04-14T12:52:21.632Z,9.30
2019-04-14T12:56:22.328Z,9.30
2019-04-14T13:00:31.129Z,10.00
2019-04-14T13:04:32.244Z,10.10
2019-04-14T13:08:33.344Z,10.40
2019-04-14T13:12:34.330Z,9.90
2019-04-14T13:16:35.364Z,11.10
2019-04-14T13:20:36.494Z,10.40
2019-04-14T13:24:37.665Z,9.90
2019-04-14T13:28:38.723Z,10.30
2019-04-14T13:32:39.692Z,9.20
2019-04-14T13:36:41.289Z,8.90
2019-04-14T13:40:42.218Z,9.20
2019-04-14T13:44:43.208Z,8.50
2019-04-14T13:48:44.087Z,8.90
2019-04-14T13:52:46.990Z,8.70
2019-04-14T13:56:48.118Z,8.80
2019-04-14T14:00:49.099Z,9.00
2019-04-14T14:04:49.989Z,9.40
2019-04-14T14:08:50.832Z,9.00
2019-04-14T14:12:56.959Z,8.90
2019-04-14T14:17:02.521Z,8.90
2019-04-14T14:21:11.467Z,8.30
2019-04-14T14:25:14.472Z,8.20
2019-04-14T14:29:15.602Z,8.00
2019-04-14T14:33:16.577Z,7.60
2019-04-14T14:37:17.675Z,7.90
2019-04-14T14:41:18.617Z,7.70
2019-04-14T14:45:36.444Z,8.30
2019-04-14T14:49:57.625Z,7.90
2019-04-14T14:53:58.655Z,8.20
2019-04-14T14:57:59.792Z,8.50
2019-04-14T15:02:00.679Z,8.20
2019-04-14T15:06:01.652Z,8.40
2019-04-14T15:10:05.091Z,7.80
2019-04-14T15:14:06.893Z,7.40
2019-04-14T15:18:08.010Z,7.50
2019-04-14T15:22:08.961Z,7.60
2019-04-14T15:26:09.864Z,7.30
2019-04-14T15:30:13.081Z,7.70
2019-04-14T15:34:14.078Z,7.70
2019-04-14T15:38:15.132Z,7.60
2019-04-14T15:42:16.353Z,7.60
2019-04-14T15:46:17.344Z,7.10
2019-04-14T15:50:18.391Z,6.70
2019-04-14T15:54:19.474Z,7.10
2019-04-14T15:58:31.311Z,7.90
2019-04-14T16:02:34.074Z,7.30
2019-04-14T16:06:45.838Z,7.40
2019-04-14T16:10:56.413Z,7.20
2019-04-14T16:15:05.148Z,7.70
2019-04-14T16:19:10.936Z,8.00
2019-04-14T16:23:11.879Z,7.50
2019-04-14T16:27:31.725Z,7.10
2019-04-14T16:31:51.146Z,6.70
2019-04-14T16:35:52.753Z,6.40
2019-04-14T16:39:53.779Z,6.20
2019-04-14T16:43:54.766Z,6.80
2019-04-14T16:47:55.783Z,6.20
2019-04-14T16:51:58.813Z,6.40
2019-04-14T16:56:04.473Z,6.70
2019-04-14T17:00:08.077Z,7.10
2019-04-14T17:04:09.167Z,6.60
2019-04-14T17:08:10.331Z,6.80
2019-04-14T17:12:12.474Z,6.40
2019-04-14T17:16:30.680Z,7.30
2019-04-14T17:20:33.633Z,6.70
2019-04-14T17:24:36.470Z,6.20
2019-04-14T17:28:42.103Z,6.90
2019-04-14T17:32:49.673Z,6.60
2019-04-14T17:36:58.494Z,6.40
2019-04-14T17:41:04.087Z,6.00
2019-04-14T17:45:11.490Z,6.70
2019-04-14T17:49:14.308Z,6.30
2019-04-14T17:53:32.281Z,6.40
2019-04-14T17:57:51.692Z,6.20
2019-04-14T18:02:12.689Z,6.20
2019-04-14T18:06:18.483Z,5.70
2019-04-14T18:10:37.986Z,6.10
2019-04-14T18:14:55.820Z,6.00
2019-04-14T18:19:01.697Z,6.50
2019-04-14T18:23:02.687Z,7.00
2019-04-14T18:27:03.596Z,6.20
2019-04-14T18:31:09.144Z,6.10
2019-04-14T18:35:12.164Z,6.80
2019-04-14T18:39:15.068Z,5.80
2019-04-14T18:43:18.402Z,5.50
2019-04-14T18:47:24.083Z,5.60
2019-04-14T18:51:35.982Z,5.40
2019-04-14T18:55:45.171Z,5.60
2019-04-14T18:59:51.189Z,5.80
2019-04-14T19:03:52.427Z,6.20
2019-04-14T19:07:54.003Z,5.80
2019-04-14T19:11:57.251Z,5.80
2019-04-14T19:16:00.305Z,5.00
2019-04-14T19:20:02.646Z,5.40
2019-04-14T19:24:03.968Z,5.60
2019-04-14T19:28:05.050Z,5.50
2019-04-14T19:32:06.131Z,5.60
2019-04-14T19:36:07.302Z,5.60
2019-04-14T19:40:08.862Z,5.40
2019-04-14T19:44:09.977Z,5.10
2019-04-14T19:48:11.094Z,5.20
2019-04-14T19:52:12.135Z,5.60
2019-04-14T19:56:14.434Z,6.10
2019-04-14T20:00:15.798Z,5.90
2019-04-14T20:04:16.878Z,5.80
2019-04-14T20:08:18.014Z,5.50
2019-04-14T20:12:18.988Z,6.10
2019-04-14T20:16:37.493Z,5.00
2019-04-14T20:20:43.404Z,4.90
2019-04-14T20:24:52.254Z,5.30
2019-04-14T20:28:55.278Z,5.10
2019-04-14T20:32:56.545Z,6.10
2019-04-14T20:36:57.701Z,6.10
2019-04-14T20:40:58.673Z,5.50
2019-04-14T20:44:59.788Z,7.40
2019-04-14T20:49:00.770Z,6.80
2019-04-14T20:53:01.881Z,7.70
2019-04-14T20:57:03.161Z,6.60
2019-04-14T21:01:05.931Z,8.00
2019-04-14T21:05:11.814Z,7.60
2019-04-14T21:09:17.569Z,7.20
2019-04-14T21:13:29.365Z,6.80
2019-04-14T21:17:32.169Z,6.80
2019-04-14T21:21:43.885Z,6.10
2019-04-14T21:26:00.814Z,6.50
2019-04-14T21:30:00.314Z,6.20
2019-04-14T21:34:15.296Z,5.60
2019-04-14T21:38:18.187Z,5.70
2019-04-14T21:42:19.820Z,5.20
2019-04-14T21:46:21.000Z,5.20
2019-04-14T21:50:21.918Z,5.30
2019-04-14T21:54:23.020Z,5.60
2019-04-14T21:58:31.753Z,5.30
2019-04-14T22:02:51.169Z,5.40
2019-04-14T22:06:54.045Z,5.60
2019-04-14T22:10:59.818Z,5.30
2019-04-14T22:15:00.728Z,5.00
2019-04-14T22:19:01.707Z,5.40
2019-04-14T22:23:04.726Z,5.50
2019-04-14T22:27:05.923Z,4.90
2019-04-14T22:31:07.045Z,5.30
2019-04-14T22:35:08.138Z,5.10
2019-04-14T22:39:11.048Z,5.70
2019-04-14T22:43:12.293Z,4.80
2019-04-14T22:47:13.169Z,4.50
2019-04-14T22:51:14.132Z,5.00
2019-04-14T22:55:15.146Z,5.00
2019-04-14T22:59:16.025Z,4.20
2019-04-14T23:03:21.648Z,4.90
2019-04-14T23:07:24.470Z,4.80
2019-04-14T23:11:33.430Z,4.50
2019-04-14T23:15:51.253Z,4.40
2019-04-14T23:19:57.130Z,4.50
2019-04-14T23:23:59.921Z,4.80
2019-04-14T23:28:00.904Z,5.10
2019-04-14T23:32:01.867Z,4.60
2019-04-14T23:36:02.835Z,4.60
2019-04-14T23:40:05.402Z,4.90
2019-04-14T23:44:06.379Z,4.80
2019-04-14T23:48:07.542Z,4.90
2019-04-14T23:52:08.419Z,5.30
2019-04-14T23:56:09.302Z,5.80
